createdAt,value
2023-03-23T00:00:14.973Z,996.40
2023-03-23T00:01:14.969Z,996.43
2023-03-23T00:02:14.967Z,996.47
2023-03-23T00:03:14.971Z,996.39
2023-03-23T00:04:14.929Z,996.39
2023-03-23T00:05:14.915Z,996.37
2023-03-23T00:06:14.895Z,996.29
2023-03-23T00:07:14.897Z,996.26
2023-03-23T00:08:14.896Z,996.27
2023-03-23T00:09:14.904Z,996.30
2023-03-23T00:10:14.878Z,996.35
2023-03-23T00:11:14.861Z,996.30
2023-03-23T00:12:14.883Z,996.32
2023-03-23T00:13:14.821Z,996.25
2023-03-23T00:14:14.827Z,996.23
2023-03-23T00:15:14.864Z,996.26
2023-03-23T00:16:14.794Z,996.25
2023-03-23T00:17:14.774Z,996.26
2023-03-23T00:18:14.768Z,996.30
2023-03-23T00:19:14.753Z,996.23
2023-03-23T00:20:14.742Z,996.23
2023-03-23T00:21:14.754Z,996.21
2023-03-23T00:22:14.728Z,996.15
2023-03-23T00:23:14.726Z,996.17
2023-03-23T00:24:14.688Z,996.18
2023-03-23T00:25:14.744Z,996.14
2023-03-23T00:26:14.670Z,996.17
2023-03-23T00:27:14.702Z,996.16
2023-03-23T00:28:14.657Z,996.14
2023-03-23T00:29:14.781Z,996.15
2023-03-23T00:30:14.640Z,996.17
2023-03-23T00:31:14.641Z,996.18
2023-03-23T00:32:14.641Z,996.16
2023-03-23T00:33:14.628Z,996.13
2023-03-23T00:34:14.598Z,996.15
2023-03-23T00:35:14.574Z,996.12
2023-03-23T00:36:14.591Z,996.05
2023-03-23T00:37:14.566Z,996.07
2023-03-23T00:38:14.570Z,996.05
2023-03-23T00:39:14.599Z,996.08
2023-03-23T00:40:14.558Z,996.03
2023-03-23T00:41:14.546Z,996.08
2023-03-23T00:42:14.493Z,996.09
2023-03-23T00:43:14.487Z,996.07
2023-03-23T00:44:14.493Z,996.01
2023-03-23T00:45:14.533Z,996.02
2023-03-23T00:46:14.457Z,996.08
2023-03-23T00:47:14.474Z,995.99
2023-03-23T00:48:14.421Z,995.98
2023-03-23T00:49:14.416Z,995.95
2023-03-23T00:50:14.411Z,995.97
2023-03-23T00:51:14.449Z,995.97
2023-03-23T00:52:14.386Z,995.98
2023-03-23T00:53:14.397Z,995.99
2023-03-23T00:54:14.365Z,995.93
2023-03-23T00:55:14.352Z,995.98
2023-03-23T00:56:14.331Z,995.92
2023-03-23T00:57:14.351Z,995.93
2023-03-23T00:58:14.304Z,995.98
2023-03-23T00:59:14.316Z,996.02
2023-03-23T01:00:14.291Z,995.96
2023-03-23T01:01:14.287Z,995.93
2023-03-23T01:02:14.278Z,995.91
2023-03-23T01:03:14.306Z,995.91
2023-03-23T01:04:14.249Z,995.88
2023-03-23T01:05:14.240Z,995.90
2023-03-23T01:06:14.217Z,995.90
2023-03-23T01:07:14.204Z,995.93
2023-03-23T01:08:14.187Z,995.91
2023-03-23T01:09:14.263Z,995.92
2023-03-23T01:10:14.164Z,995.92
2023-03-23T01:11:14.188Z,995.97
2023-03-23T01:12:14.170Z,995.95
2023-03-23T01:13:14.141Z,995.96
2023-03-23T01:14:14.132Z,995.92
2023-03-23T01:15:14.155Z,995.87
2023-03-23T01:16:14.100Z,995.92
2023-03-23T01:17:14.092Z,995.85
2023-03-23T01:18:14.110Z,995.81
2023-03-23T01:19:14.077Z,995.73
2023-03-23T01:20:14.052Z,995.77
2023-03-23T01:21:14.119Z,995.80
2023-03-23T01:22:14.030Z,995.77
2023-03-23T01:23:14.033Z,995.74
2023-03-23T01:24:14.013Z,995.79
2023-03-23T01:25:14.026Z,995.77
2023-03-23T01:26:13.994Z,995.73
2023-03-23T01:27:14.038Z,995.74
2023-03-23T01:28:13.993Z,995.76
2023-03-23T01:29:13.996Z,995.78
2023-03-23T01:30:13.950Z,995.83
2023-03-23T01:31:14.536Z,995.88
2023-03-23T01:32:13.926Z,995.89
2023-03-23T01:33:13.945Z,995.94
2023-03-23T01:34:13.905Z,995.93
2023-03-23T01:35:13.908Z,995.85
2023-03-23T01:36:13.869Z,995.84
2023-03-23T01:37:13.877Z,995.84
2023-03-23T01:38:13.876Z,995.80
2023-03-23T01:39:13.894Z,995.79
2023-03-23T01:40:13.829Z,995.75
2023-03-23T01:41:13.838Z,995.66
2023-03-23T01:42:13.817Z,995.60
2023-03-23T01:43:13.798Z,995.56
2023-03-23T01:44:13.808Z,995.55
2023-03-23T01:45:13.831Z,995.55
2023-03-23T01:46:13.791Z,995.53
2023-03-23T01:47:13.776Z,995.53
2023-03-23T01:48:13.751Z,995.52
2023-03-23T01:49:13.786Z,995.48
2023-03-23T01:50:13.755Z,995.53
2023-03-23T01:51:13.758Z,995.53
2023-03-23T01:52:13.703Z,995.52
2023-03-23T01:53:13.693Z,995.51
2023-03-23T01:54:13.690Z,995.45
2023-03-23T01:55:13.689Z,995.46
2023-03-23T01:56:13.656Z,995.53
2023-03-23T01:57:13.664Z,995.50
2023-03-23T01:58:13.633Z,995.47
2023-03-23T01:59:13.618Z,995.49
2023-03-23T02:00:13.626Z,995.46
2023-03-23T02:01:13.609Z,995.51
2023-03-23T02:02:13.627Z,995.50
2023-03-23T02:03:13.583Z,995.56
2023-03-23T02:04:13.568Z,995.59
2023-03-23T02:05:13.581Z,995.59
2023-03-23T02:06:13.542Z,995.54
2023-03-23T02:07:13.552Z,995.51
2023-03-23T02:08:13.561Z,995.47
2023-03-23T02:09:13.530Z,995.44
2023-03-23T02:10:13.508Z,995.47
2023-03-23T02:11:22.032Z,995.41
2023-03-23T02:12:13.511Z,995.38
2023-03-23T02:13:13.465Z,995.28
2023-03-23T02:14:13.466Z,995.28
2023-03-23T02:15:13.448Z,995.26
2023-03-23T02:16:13.463Z,995.25
2023-03-23T02:17:13.444Z,995.19
2023-03-23T02:18:13.430Z,995.23
2023-03-23T02:19:13.404Z,995.31
2023-03-23T02:20:13.383Z,995.43
2023-03-23T02:21:13.379Z,995.44
2023-03-23T02:22:13.369Z,995.42
2023-03-23T02:23:13.369Z,995.34
2023-03-23T02:24:13.378Z,995.26
2023-03-23T02:25:13.336Z,995.19
2023-03-23T02:26:13.311Z,995.14
2023-03-23T02:27:13.322Z,995.14
2023-03-23T02:28:13.318Z,995.17
2023-03-23T02:29:13.280Z,995.18
2023-03-23T02:30:13.660Z,995.12
2023-03-23T02:31:13.262Z,995.10
2023-03-23T02:32:13.243Z,995.13
2023-03-23T02:33:13.239Z,995.09
2023-03-23T02:34:13.220Z,994.94
2023-03-23T02:35:13.228Z,994.93
2023-03-23T02:36:13.238Z,994.95
2023-03-23T02:37:13.194Z,994.89
2023-03-23T02:38:13.183Z,994.89
2023-03-23T02:39:13.171Z,994.90
2023-03-23T02:40:13.150Z,994.96
2023-03-23T02:41:13.143Z,995.03
2023-03-23T02:42:14.126Z,995.13
2023-03-23T02:43:13.146Z,995.13
2023-03-23T02:44:13.108Z,995.12
2023-03-23T02:45:13.107Z,995.12
2023-03-23T02:46:13.103Z,995.08
2023-03-23T02:47:13.104Z,995.06
2023-03-23T02:48:13.086Z,995.01
2023-03-23T02:49:13.080Z,995.03
2023-03-23T02:50:13.042Z,995.03
2023-03-23T02:51:13.055Z,994.99
2023-03-23T02:52:13.036Z,994.83
2023-03-23T02:53:13.008Z,994.84
2023-03-23T02:54:13.048Z,994.87
2023-03-23T02:55:13.015Z,994.84
2023-03-23T02:56:13.004Z,994.78
2023-03-23T02:57:12.988Z,994.71
2023-03-23T02:58:12.969Z,994.60
2023-03-23T02:59:12.950Z,994.56
2023-03-23T03:00:12.971Z,994.52
2023-03-23T03:01:12.920Z,994.37
2023-03-23T03:02:12.925Z,994.33
2023-03-23T03:03:12.907Z,994.29
2023-03-23T03:04:12.902Z,994.30
2023-03-23T03:05:12.881Z,994.28
2023-03-23T03:06:12.892Z,994.38
2023-03-23T03:07:12.850Z,994.49
2023-03-23T03:08:12.843Z,994.50
2023-03-23T03:09:12.835Z,994.42
2023-03-23T03:10:12.830Z,994.43
2023-03-23T03:11:12.816Z,994.43
2023-03-23T03:12:12.806Z,994.39
2023-03-23T03:13:12.786Z,994.32
2023-03-23T03:14:12.767Z,994.29
2023-03-23T03:15:12.761Z,994.31
2023-03-23T03:16:12.748Z,994.34
2023-03-23T03:17:12.764Z,994.35
2023-03-23T03:18:12.719Z,994.34
2023-03-23T03:19:12.737Z,994.41
2023-03-23T03:20:12.722Z,994.44
2023-03-23T03:21:12.716Z,994.46
2023-03-23T03:22:12.705Z,994.50
2023-03-23T03:23:12.711Z,994.52
2023-03-23T03:24:12.663Z,994.50
2023-03-23T03:25:18.197Z,994.48
2023-03-23T03:26:12.636Z,994.51
2023-03-23T03:27:12.631Z,994.55
2023-03-23T03:28:12.607Z,994.61
2023-03-23T03:29:12.661Z,994.64
2023-03-23T03:30:12.584Z,994.64
2023-03-23T03:31:12.581Z,994.63
2023-03-23T03:32:12.582Z,994.65
2023-03-23T03:33:12.557Z,994.61
2023-03-23T03:34:12.541Z,994.63
2023-03-23T03:35:12.620Z,994.66
2023-03-23T03:36:12.530Z,994.60
2023-03-23T03:37:12.518Z,994.51
2023-03-23T03:38:12.525Z,994.45
2023-03-23T03:39:12.492Z,994.42
2023-03-23T03:40:12.489Z,994.41
2023-03-23T03:41:12.525Z,994.47
2023-03-23T03:42:12.459Z,994.41
2023-03-23T03:43:12.458Z,994.42
2023-03-23T03:44:12.449Z,994.43
2023-03-23T03:45:12.425Z,994.50
2023-03-23T03:46:12.436Z,994.53
2023-03-23T03:47:12.461Z,994.58
2023-03-23T03:48:12.404Z,994.59
2023-03-23T03:49:12.413Z,994.61
2023-03-23T03:50:12.372Z,994.61
2023-03-23T03:51:12.358Z,994.54
2023-03-23T03:52:12.338Z,994.57
2023-03-23T03:53:12.390Z,994.57
2023-03-23T03:54:12.338Z,994.60
2023-03-23T03:55:12.309Z,994.62
2023-03-23T03:56:12.322Z,994.55
2023-03-23T03:57:12.304Z,994.65
2023-03-23T03:58:12.276Z,994.69
2023-03-23T03:59:21.120Z,994.66
2023-03-23T04:00:12.278Z,994.69
2023-03-23T04:01:12.243Z,994.75
2023-03-23T04:02:12.235Z,994.74
2023-03-23T04:03:12.243Z,994.67
2023-03-23T04:04:12.210Z,994.68
2023-03-23T04:05:12.237Z,994.69
2023-03-23T04:06:12.183Z,994.69
2023-03-23T04:07:12.179Z,994.63
2023-03-23T04:08:12.181Z,994.69
2023-03-23T04:09:12.166Z,994.65
2023-03-23T04:10:12.178Z,994.64
2023-03-23T04:11:12.205Z,994.64
2023-03-23T04:12:12.135Z,994.60
2023-03-23T04:13:12.128Z,994.65
2023-03-23T04:14:12.108Z,994.67
2023-03-23T04:15:12.084Z,994.64
2023-03-23T04:16:12.109Z,994.67
2023-03-23T04:17:12.084Z,994.68
2023-03-23T04:18:12.079Z,994.66
2023-03-23T04:19:12.052Z,994.66
2023-03-23T04:20:12.059Z,994.58
2023-03-23T04:21:12.076Z,994.63
2023-03-23T04:22:12.001Z,994.63
2023-03-23T04:23:12.038Z,994.63
2023-03-23T04:24:23.465Z,994.61
2023-03-23T04:25:11.977Z,994.63
2023-03-23T04:26:11.983Z,994.60
2023-03-23T04:27:11.943Z,994.54
2023-03-23T04:28:11.940Z,994.66
2023-03-23T04:29:11.951Z,994.60
2023-03-23T04:30:11.942Z,994.67
2023-03-23T04:31:11.906Z,994.66
2023-03-23T04:32:11.901Z,994.70
2023-03-23T04:33:11.900Z,994.76
2023-03-23T04:34:12.358Z,994.70
2023-03-23T04:35:12.972Z,994.66
2023-03-23T04:36:11.900Z,994.70
2023-03-23T04:37:11.839Z,994.70
2023-03-23T04:38:11.851Z,994.68
2023-03-23T04:39:11.815Z,994.66
2023-03-23T04:40:11.856Z,994.65
2023-03-23T04:41:11.811Z,994.68
2023-03-23T04:42:11.787Z,994.63
2023-03-23T04:43:11.812Z,994.64
2023-03-23T04:44:11.758Z,994.65
2023-03-23T04:45:11.752Z,994.58
2023-03-23T04:46:11.789Z,994.52
2023-03-23T04:47:11.789Z,994.52
2023-03-23T04:48:11.774Z,994.46
2023-03-23T04:49:11.702Z,994.46
2023-03-23T04:50:11.728Z,994.42
2023-03-23T04:51:11.701Z,994.39
2023-03-23T04:52:11.772Z,994.45
2023-03-23T04:53:11.660Z,994.39
2023-03-23T04:54:11.654Z,994.43
2023-03-23T04:55:11.636Z,994.41
2023-03-23T04:56:11.641Z,994.32
2023-03-23T04:57:11.651Z,994.32
2023-03-23T04:58:11.656Z,994.38
2023-03-23T04:59:11.604Z,994.42
2023-03-23T05:00:11.628Z,994.41
2023-03-23T05:01:11.572Z,994.40
2023-03-23T05:02:14.837Z,994.47
2023-03-23T05:03:11.552Z,994.42
2023-03-23T05:04:11.585Z,994.47
2023-03-23T05:05:11.539Z,994.43
2023-03-23T05:06:11.543Z,994.45
2023-03-23T05:07:11.505Z,994.49
2023-03-23T05:08:11.503Z,994.50
2023-03-23T05:09:11.496Z,994.54
2023-03-23T05:10:11.511Z,994.51
2023-03-23T05:11:11.458Z,994.53
2023-03-23T05:12:11.450Z,994.57
2023-03-23T05:13:11.419Z,994.53
2023-03-23T05:14:11.423Z,994.56
2023-03-23T05:15:11.417Z,994.63
2023-03-23T05:16:11.463Z,994.69
2023-03-23T05:17:11.385Z,994.64
2023-03-23T05:18:11.396Z,994.68
2023-03-23T05:19:11.378Z,994.68
2023-03-23T05:20:11.357Z,994.68
2023-03-23T05:21:11.379Z,994.73
2023-03-23T05:22:11.365Z,994.71
2023-03-23T05:23:11.319Z,994.75
2023-03-23T05:24:11.325Z,994.79
2023-03-23T05:25:11.320Z,994.66
2023-03-23T05:26:11.292Z,994.74
2023-03-23T05:27:11.262Z,994.80
2023-03-23T05:28:11.317Z,994.81
2023-03-23T05:29:11.267Z,994.77
2023-03-23T05:30:11.257Z,994.81
2023-03-23T05:31:11.226Z,994.82
2023-03-23T05:32:11.227Z,994.78
2023-03-23T05:33:11.211Z,994.75
2023-03-23T05:34:11.218Z,994.80
2023-03-23T05:35:11.196Z,994.76
2023-03-23T05:36:11.216Z,994.77
2023-03-23T05:37:11.260Z,994.81
2023-03-23T05:38:11.148Z,994.85
2023-03-23T05:39:11.136Z,994.75
2023-03-23T05:40:11.497Z,994.79
2023-03-23T05:41:11.136Z,994.75
2023-03-23T05:42:11.097Z,994.83
2023-03-23T05:43:11.097Z,994.79
2023-03-23T05:44:11.099Z,994.83
2023-03-23T05:45:11.078Z,994.84
2023-03-23T05:46:11.104Z,994.81
2023-03-23T05:47:11.052Z,994.81
2023-03-23T05:48:11.048Z,994.87
2023-03-23T05:49:11.008Z,994.83
2023-03-23T05:50:11.043Z,994.76
2023-03-23T05:51:11.004Z,994.76
2023-03-23T05:52:11.011Z,994.76
2023-03-23T05:53:12.586Z,994.80
2023-03-23T05:54:10.988Z,994.79
2023-03-23T05:55:10.945Z,994.82
2023-03-23T05:56:10.945Z,994.85
2023-03-23T05:57:10.927Z,994.87
2023-03-23T05:58:10.989Z,994.87
2023-03-23T05:59:10.897Z,994.92
2023-03-23T06:00:10.896Z,994.92
2023-03-23T06:01:10.875Z,994.96
2023-03-23T06:02:10.880Z,995.00
2023-03-23T06:03:10.875Z,994.99
2023-03-23T06:04:10.879Z,995.01
2023-03-23T06:05:10.830Z,994.99
2023-03-23T06:06:10.847Z,995.01
2023-03-23T06:07:10.809Z,995.05
2023-03-23T06:08:10.801Z,994.99
2023-03-23T06:09:10.809Z,994.99
2023-03-23T06:10:10.814Z,994.95
2023-03-23T06:11:10.789Z,994.96
2023-03-23T06:12:10.761Z,994.91
2023-03-23T06:13:10.749Z,994.89
2023-03-23T06:14:11.740Z,994.88
2023-03-23T06:15:10.720Z,994.96
2023-03-23T06:16:10.744Z,994.92
2023-03-23T06:17:10.732Z,994.89
2023-03-23T06:18:10.692Z,995.03
2023-03-23T06:19:10.672Z,994.96
2023-03-23T06:20:10.677Z,994.94
2023-03-23T06:21:10.648Z,995.00
2023-03-23T06:22:10.671Z,995.06
2023-03-23T06:23:10.644Z,995.04
2023-03-23T06:24:10.629Z,995.07
2023-03-23T06:25:10.632Z,995.07
2023-03-23T06:26:10.597Z,995.08
2023-03-23T06:27:10.981Z,995.12
2023-03-23T06:28:10.630Z,995.11
2023-03-23T06:29:10.606Z,995.09
2023-03-23T06:30:10.572Z,995.10
2023-03-23T06:31:10.536Z,995.16
2023-03-23T06:32:10.555Z,995.14
2023-03-23T06:33:10.537Z,995.19
2023-03-23T06:34:10.527Z,995.20
2023-03-23T06:35:10.514Z,995.18
2023-03-23T06:36:10.522Z,995.22
2023-03-23T06:37:10.489Z,995.13
2023-03-23T06:38:10.481Z,995.16
2023-03-23T06:39:10.550Z,995.13
2023-03-23T06:40:10.569Z,995.14
2023-03-23T06:41:10.423Z,995.13
2023-03-23T06:42:10.473Z,995.17
2023-03-23T06:43:10.401Z,995.17
2023-03-23T06:44:10.438Z,995.19
2023-03-23T06:45:10.690Z,995.25
2023-03-23T06:46:10.423Z,995.19
2023-03-23T06:47:10.394Z,995.19
2023-03-23T06:48:10.486Z,995.20
2023-03-23T06:49:10.370Z,995.22
2023-03-23T06:50:10.366Z,995.21
2023-03-23T06:51:10.369Z,995.14
2023-03-23T06:52:10.309Z,995.22
2023-03-23T06:53:10.311Z,995.19
2023-03-23T06:54:10.281Z,995.16
2023-03-23T06:55:10.348Z,995.16
2023-03-23T06:56:10.297Z,995.16
2023-03-23T06:57:10.260Z,995.17
2023-03-23T06:58:10.294Z,995.18
2023-03-23T06:59:10.289Z,995.18
2023-03-23T07:00:10.493Z,995.11
2023-03-23T07:01:10.228Z,995.18
2023-03-23T07:02:10.242Z,995.18
2023-03-23T07:03:10.261Z,995.19
2023-03-23T07:04:10.540Z,995.14
2023-03-23T07:05:10.142Z,995.13
2023-03-23T07:06:10.243Z,995.09
2023-03-23T07:07:10.127Z,995.16
2023-03-23T07:08:10.185Z,995.13
2023-03-23T07:09:10.131Z,995.14
2023-03-23T07:10:10.113Z,995.10
2023-03-23T07:11:11.345Z,995.07
2023-03-23T07:12:10.080Z,995.18
2023-03-23T07:13:10.081Z,995.15
2023-03-23T07:14:10.114Z,995.26
2023-03-23T07:15:10.117Z,995.21
2023-03-23T07:16:10.084Z,995.25
2023-03-23T07:17:10.086Z,995.24
2023-03-23T07:18:10.002Z,995.24
2023-03-23T07:19:10.010Z,995.23
2023-03-23T07:20:10.042Z,995.22
2023-03-23T07:21:10.060Z,995.29
2023-03-23T07:22:10.025Z,995.20
2023-03-23T07:23:09.949Z,995.26
2023-03-23T07:24:09.934Z,995.32
2023-03-23T07:25:09.994Z,995.24
2023-03-23T07:26:10.021Z,995.32
2023-03-23T07:27:09.937Z,995.24
2023-03-23T07:28:09.950Z,995.23
2023-03-23T07:29:09.926Z,995.24
2023-03-23T07:30:09.984Z,995.28
2023-03-23T07:31:09.903Z,995.27
2023-03-23T07:32:09.846Z,995.37
2023-03-23T07:33:09.910Z,995.36
2023-03-23T07:34:09.844Z,995.37
2023-03-23T07:35:10.907Z,995.36
2023-03-23T07:36:10.775Z,995.30
2023-03-23T07:37:09.796Z,995.31
2023-03-23T07:38:09.775Z,995.34
2023-03-23T07:39:09.772Z,995.30
2023-03-23T07:40:09.745Z,995.33
2023-03-23T07:41:09.741Z,995.37
2023-03-23T07:42:09.734Z,995.42
2023-03-23T07:43:09.771Z,995.38
2023-03-23T07:44:09.727Z,995.41
2023-03-23T07:45:09.753Z,995.46
2023-03-23T07:46:09.683Z,995.43
2023-03-23T07:47:11.480Z,995.47
2023-03-23T07:48:20.991Z,995.47
2023-03-23T07:49:09.683Z,995.46
2023-03-23T07:50:09.660Z,995.53
2023-03-23T07:51:09.669Z,995.47
2023-03-23T07:52:09.632Z,995.44
2023-03-23T07:53:09.596Z,995.40
2023-03-23T07:54:09.599Z,995.37
2023-03-23T07:55:09.576Z,995.42
2023-03-23T07:56:09.585Z,995.38
2023-03-23T07:57:09.586Z,995.43
2023-03-23T07:58:09.571Z,995.41
2023-03-23T07:59:09.556Z,995.51
2023-03-23T08:00:09.533Z,995.46
2023-03-23T08:01:09.499Z,995.43
2023-03-23T08:02:09.509Z,995.50
2023-03-23T08:03:09.524Z,995.35
2023-03-23T08:04:09.510Z,995.48
2023-03-23T08:05:09.447Z,995.43
2023-03-23T08:06:09.468Z,995.40
2023-03-23T08:07:09.433Z,995.47
2023-03-23T08:08:09.429Z,995.47
2023-03-23T08:09:09.439Z,995.48
2023-03-23T08:10:09.428Z,995.53
2023-03-23T08:11:09.423Z,995.58
2023-03-23T08:12:09.385Z,995.57
2023-03-23T08:13:09.366Z,995.58
2023-03-23T08:14:09.356Z,995.61
2023-03-23T08:15:09.392Z,995.57
2023-03-23T08:16:09.344Z,995.55
2023-03-23T08:17:09.341Z,995.58
2023-03-23T08:18:09.310Z,995.54
2023-03-23T08:19:09.319Z,995.53
2023-03-23T08:20:09.324Z,995.60
2023-03-23T08:21:09.322Z,995.57
2023-03-23T08:22:09.261Z,995.58
2023-03-23T08:23:09.270Z,995.62
2023-03-23T08:24:09.255Z,995.58
2023-03-23T08:25:09.222Z,995.55
2023-03-23T08:26:09.246Z,995.63
2023-03-23T08:27:09.240Z,995.69
2023-03-23T08:28:09.225Z,995.63
2023-03-23T08:29:09.185Z,995.67
2023-03-23T08:30:09.172Z,995.72
2023-03-23T08:31:09.182Z,995.76
2023-03-23T08:32:09.172Z,995.79
2023-03-23T08:33:09.183Z,995.66
2023-03-23T08:34:09.145Z,995.74
2023-03-23T08:35:09.128Z,995.66
2023-03-23T08:36:09.140Z,995.68
2023-03-23T08:37:09.107Z,995.65
2023-03-23T08:38:09.108Z,995.65
2023-03-23T08:39:09.135Z,995.79
2023-03-23T08:40:09.142Z,995.65
2023-03-23T08:41:09.083Z,995.77
2023-03-23T08:42:09.078Z,995.71
2023-03-23T08:43:09.043Z,995.79
2023-03-23T08:44:09.007Z,995.76
2023-03-23T08:45:09.040Z,995.79
2023-03-23T08:46:09.016Z,995.75
2023-03-23T08:47:08.977Z,995.76
2023-03-23T08:48:08.996Z,995.74
2023-03-23T08:49:08.970Z,995.73
2023-03-23T08:50:08.974Z,995.79
2023-03-23T08:51:08.970Z,995.82
2023-03-23T08:52:08.982Z,995.76
2023-03-23T08:53:08.924Z,995.83
2023-03-23T08:54:08.905Z,995.82
2023-03-23T08:55:08.920Z,995.87
2023-03-23T08:56:08.880Z,995.84
2023-03-23T08:57:08.947Z,995.87
2023-03-23T08:58:08.863Z,995.88
2023-03-23T08:59:08.859Z,995.88
2023-03-23T09:00:08.851Z,995.82
2023-03-23T09:01:08.854Z,995.82
2023-03-23T09:02:08.821Z,995.87
2023-03-23T09:03:08.843Z,995.97
2023-03-23T09:04:08.805Z,995.88
2023-03-23T09:05:08.779Z,995.87
2023-03-23T09:06:08.773Z,996.01
2023-03-23T09:07:08.775Z,996.01
2023-03-23T09:08:08.739Z,995.95
2023-03-23T09:09:08.800Z,996.02
2023-03-23T09:10:08.744Z,996.04
2023-03-23T09:11:08.769Z,996.03
2023-03-23T09:12:08.735Z,996.11
2023-03-23T09:13:08.700Z,996.07
2023-03-23T09:14:08.700Z,996.06
2023-03-23T09:15:08.745Z,996.09
2023-03-23T09:16:08.688Z,996.13
2023-03-23T09:17:08.699Z,996.12
2023-03-23T09:18:08.664Z,996.12
2023-03-23T09:19:08.640Z,996.14
2023-03-23T09:20:08.654Z,996.14
2023-03-23T09:21:08.620Z,996.20
2023-03-23T09:22:08.603Z,996.19
2023-03-23T09:23:08.621Z,996.09
2023-03-23T09:24:08.580Z,996.10
2023-03-23T09:25:09.254Z,996.16
2023-03-23T09:26:08.595Z,996.12
2023-03-23T09:27:08.574Z,996.13
2023-03-23T09:28:08.532Z,996.09
2023-03-23T09:29:08.524Z,996.13
2023-03-23T09:30:08.507Z,996.12
2023-03-23T09:31:08.704Z,996.09
2023-03-23T09:32:08.536Z,996.11
2023-03-23T09:33:08.515Z,996.10
2023-03-23T09:34:08.466Z,996.10
2023-03-23T09:35:08.443Z,996.24
2023-03-23T09:36:08.473Z,996.61
2023-03-23T09:37:08.468Z,996.89
2023-03-23T09:38:08.489Z,996.87
2023-03-23T09:39:08.407Z,996.89
2023-03-23T09:40:08.389Z,996.88
2023-03-23T09:41:08.381Z,996.92
2023-03-23T09:42:08.371Z,996.92
2023-03-23T09:43:08.364Z,996.92
2023-03-23T09:44:08.390Z,996.94
2023-03-23T09:45:08.354Z,996.99
2023-03-23T09:46:08.356Z,997.00
2023-03-23T09:47:08.326Z,997.10
2023-03-23T09:48:08.796Z,997.10
2023-03-23T09:49:08.299Z,997.03
2023-03-23T09:50:08.326Z,997.11
2023-03-23T09:51:08.308Z,997.09
2023-03-23T09:52:08.252Z,997.12
2023-03-23T09:53:08.263Z,997.13
2023-03-23T09:54:08.240Z,997.17
2023-03-23T09:55:08.231Z,997.13
2023-03-23T09:56:08.221Z,997.13
2023-03-23T09:57:08.220Z,997.20
2023-03-23T09:58:08.215Z,997.09
2023-03-23T09:59:08.184Z,997.12
2023-03-23T10:00:08.221Z,997.16
2023-03-23T10:01:08.238Z,997.14
2023-03-23T10:02:08.148Z,997.07
2023-03-23T10:03:08.137Z,996.99
2023-03-23T10:04:08.118Z,997.02
2023-03-23T10:05:08.131Z,996.99
2023-03-23T10:06:08.097Z,996.93
2023-03-23T10:07:08.193Z,996.99
2023-03-23T10:08:08.063Z,997.00
2023-03-23T10:09:08.083Z,996.95
2023-03-23T10:10:08.053Z,996.90
2023-03-23T10:11:08.074Z,996.85
2023-03-23T10:12:08.048Z,996.82
2023-03-23T10:13:08.054Z,996.84
2023-03-23T10:14:08.015Z,996.90
2023-03-23T10:15:08.006Z,996.96
2023-03-23T10:16:07.993Z,997.01
2023-03-23T10:17:09.583Z,997.03
2023-03-23T10:18:07.963Z,997.04
2023-03-23T10:19:07.975Z,997.03
2023-03-23T10:20:07.952Z,997.04
2023-03-23T10:21:07.967Z,997.03
2023-03-23T10:22:07.911Z,997.04
2023-03-23T10:23:07.924Z,997.04
2023-03-23T10:24:07.951Z,996.97
2023-03-23T10:25:07.934Z,996.95
2023-03-23T10:26:07.875Z,997.01
2023-03-23T10:27:07.889Z,996.96
2023-03-23T10:28:07.860Z,996.93
2023-03-23T10:29:07.831Z,996.91
2023-03-23T10:30:07.815Z,996.94
2023-03-23T10:31:07.875Z,996.99
2023-03-23T10:32:07.806Z,997.00
2023-03-23T10:33:07.807Z,997.07
2023-03-23T10:34:07.789Z,997.03
2023-03-23T10:35:07.778Z,997.05
2023-03-23T10:36:07.820Z,997.09
2023-03-23T10:37:07.788Z,997.14
2023-03-23T10:38:07.725Z,997.14
2023-03-23T10:39:07.722Z,997.20
2023-03-23T10:40:07.797Z,997.17
2023-03-23T10:41:07.700Z,997.13
2023-03-23T10:42:07.690Z,997.19
2023-03-23T10:43:07.722Z,997.19
2023-03-23T10:44:07.680Z,997.07
2023-03-23T10:45:07.653Z,997.17
2023-03-23T10:46:07.663Z,997.22
2023-03-23T10:47:07.658Z,997.19
2023-03-23T10:48:07.622Z,997.12
2023-03-23T10:49:07.651Z,997.15
2023-03-23T10:50:07.599Z,997.16
2023-03-23T10:51:07.618Z,997.15
2023-03-23T10:52:07.599Z,997.09
2023-03-23T10:53:07.583Z,997.07
2023-03-23T10:54:08.787Z,997.10
2023-03-23T10:55:07.927Z,997.14
2023-03-23T10:56:07.527Z,997.13
2023-03-23T10:57:07.541Z,997.14
2023-03-23T10:58:07.501Z,997.09
2023-03-23T10:59:07.500Z,997.15
2023-03-23T11:00:07.505Z,997.09
2023-03-23T11:01:07.526Z,997.20
2023-03-23T11:02:07.458Z,997.14
2023-03-23T11:03:07.468Z,997.16
2023-03-23T11:04:07.466Z,997.12
2023-03-23T11:05:09.590Z,997.15
2023-03-23T11:06:07.409Z,997.19
2023-03-23T11:07:07.439Z,997.21
2023-03-23T11:08:07.422Z,997.31
2023-03-23T11:09:07.392Z,997.36
2023-03-23T11:10:07.383Z,997.39
2023-03-23T11:11:07.379Z,997.38
2023-03-23T11:12:07.352Z,997.35
2023-03-23T11:13:07.401Z,997.36
2023-03-23T11:14:07.329Z,997.36
2023-03-23T11:15:07.330Z,997.42
2023-03-23T11:16:07.315Z,997.44
2023-03-23T11:17:15.726Z,997.39
2023-03-23T11:18:07.297Z,997.36
2023-03-23T11:19:07.293Z,997.44
2023-03-23T11:20:07.244Z,997.44
2023-03-23T11:21:07.250Z,997.45
2023-03-23T11:22:07.222Z,997.37
2023-03-23T11:23:07.230Z,997.37
2023-03-23T11:24:09.957Z,997.36
2023-03-23T11:25:07.197Z,997.31
2023-03-23T11:26:07.209Z,997.27
2023-03-23T11:27:07.172Z,997.29
2023-03-23T11:28:07.163Z,997.24
2023-03-23T11:29:07.155Z,997.33
2023-03-23T11:30:07.169Z,997.31
2023-03-23T11:31:07.189Z,997.30
2023-03-23T11:32:07.145Z,997.23
2023-03-23T11:33:07.101Z,997.27
2023-03-23T11:34:07.093Z,997.14
2023-03-23T11:35:16.221Z,997.06
2023-03-23T11:36:07.130Z,997.08
2023-03-23T11:37:07.076Z,997.11
2023-03-23T11:38:07.061Z,997.16
2023-03-23T11:39:07.076Z,997.13
2023-03-23T11:40:07.034Z,997.07
2023-03-23T11:41:07.022Z,997.16
2023-03-23T11:42:09.616Z,997.16
2023-03-23T11:43:06.998Z,997.09
2023-03-23T11:44:07.003Z,997.17
2023-03-23T11:45:06.990Z,997.20
2023-03-23T11:46:06.973Z,997.15
2023-03-23T11:47:06.963Z,997.24
2023-03-23T11:48:06.921Z,997.16
2023-03-23T11:49:19.046Z,997.21
2023-03-23T11:50:06.930Z,997.18
2023-03-23T11:51:06.908Z,997.16
2023-03-23T11:52:06.873Z,997.19
2023-03-23T11:53:06.920Z,997.20
2023-03-23T11:54:06.857Z,997.13
2023-03-23T11:55:06.871Z,997.16
2023-03-23T11:56:06.893Z,997.05
2023-03-23T11:57:06.831Z,997.10
2023-03-23T11:58:06.818Z,997.06
2023-03-23T11:59:06.833Z,997.01
2023-03-23T12:00:06.799Z,996.96
2023-03-23T12:01:06.817Z,996.94
2023-03-23T12:02:16.970Z,997.04
2023-03-23T12:03:06.774Z,997.00
2023-03-23T12:04:06.768Z,997.06
2023-03-23T12:05:06.740Z,997.03
2023-03-23T12:06:06.720Z,997.08
2023-03-23T12:07:06.747Z,997.12
2023-03-23T12:08:06.705Z,997.19
2023-03-23T12:09:06.713Z,997.21
2023-03-23T12:10:06.688Z,997.17
2023-03-23T12:11:06.800Z,997.20
2023-03-23T12:12:06.651Z,997.24
2023-03-23T12:13:06.724Z,997.16
2023-03-23T12:14:06.645Z,997.18
2023-03-23T12:15:06.654Z,997.21
2023-03-23T12:16:06.608Z,997.22
2023-03-23T12:17:06.593Z,997.31
2023-03-23T12:18:06.612Z,997.25
2023-03-23T12:19:06.578Z,997.31
2023-03-23T12:20:06.588Z,997.20
2023-03-23T12:21:06.576Z,997.28
2023-03-23T12:22:06.559Z,997.25
2023-03-23T12:23:06.549Z,997.22
2023-03-23T12:24:06.540Z,997.15
2023-03-23T12:25:06.556Z,997.24
2023-03-23T12:26:06.510Z,997.23
2023-03-23T12:27:06.484Z,997.22
2023-03-23T12:28:06.510Z,997.25